Time;durP1;ratioP1;P1;durP2;ratioP2;P2;SDS_P1;SDS_P2;PMS_P1;PMS_P2;Temp;Humidity;BMP_temperature;BMP_pressure;BME280_temperature;BME280_humidity;BME280_pressure;Samples;Min_cycle;Max_cycle;Signal;HPM_P1;HPM_P2
2022/11/04 00:00:26;;;;;;;1.50;1.40;;;;;;;;;;5051727;28;20118;-70
2022/11/04 00:02:55;;;;;;;2.28;1.35;;;;;;;;;;5057473;28;20094;-70
2022/11/04 00:05:22;;;;;;;1.67;1.17;;;;;;;;;;5067062;28;20052;-69
2022/11/04 00:08:34;;;;;;;1.30;0.98;;;;;;;;;;5071476;28;20114;-70
2022/11/04 00:13:22;;;;;;;0.73;0.73;;;;;;;;;;5060477;28;20044;-70
2022/11/04 00:18:41;;;;;;;2.33;1.37;;;;;;;;;;5062290;28;20053;-70
2022/11/04 00:29:23;;;;;;;1.88;1.52;;;;;;;;;;5075073;28;20076;-70
2022/11/04 00:34:35;;;;;;;1.05;0.73;;;;;;;;;;5075448;28;20048;-69
2022/11/04 00:37:02;;;;;;;0.93;0.70;;;;;;;;;;5075702;28;20455;-70
2022/11/04 00:39:28;;;;;;;1.30;0.90;;;;;;;;;;5074784;28;20045;-70
2022/11/04 00:41:55;;;;;;;1.52;1.20;;;;;;;;;;5075486;28;20072;-70
2022/11/04 00:44:22;;;;;;;1.52;1.02;;;;;;;;;;5075441;28;20045;-70
2022/11/04 00:46:48;;;;;;;0.82;0.82;;;;;;;;;;5070930;28;20495;-70
2022/11/04 00:49:15;;;;;;;1.27;0.85;;;;;;;;;;5054535;28;20630;-70
2022/11/04 00:51:41;;;;;;;1.48;0.90;;;;;;;;;;5055295;28;20102;-70
2022/11/04 00:54:08;;;;;;;1.10;0.70;;;;;;;;;;5055076;28;20080;-70
2022/11/04 00:56:38;;;;;;;3.30;0.95;;;;;;;;;;5055090;28;20053;-71
2022/11/04 00:59:05;;;;;;;1.13;0.90;;;;;;;;;;5054343;28;20080;-69
2022/11/04 01:01:39;;;;;;;1.33;0.80;;;;;;;;;;5055171;28;20053;-71
2022/11/04 01:04:06;;;;;;;2.13;0.90;;;;;;;;;;5055105;28;20075;-69
2022/11/04 01:06:32;;;;;;;0.95;0.70;;;;;;;;;;5055096;28;20045;-70
2022/11/04 01:09:00;;;;;;;2.38;1.00;;;;;;;;;;5054204;28;20099;-70
2022/11/04 01:11:28;;;;;;;2.45;1.00;;;;;;;;;;5054851;28;20127;-70
2022/11/04 01:13:55;;;;;;;1.73;0.88;;;;;;;;;;5068508;28;20044;-70
2022/11/04 01:16:22;;;;;;;1.50;0.80;;;;;;;;;;5074897;28;20825;-70
2022/11/04 01:18:49;;;;;;;0.95;0.80;;;;;;;;;;5073027;28;20106;-70
2022/11/04 01:21:16;;;;;;;0.70;0.60;;;;;;;;;;5074424;28;20143;-70
2022/11/04 01:23:44;;;;;;;0.70;0.70;;;;;;;;;;5074738;28;20078;-71
2022/11/04 01:26:16;;;;;;;1.88;0.82;;;;;;;;;;5057225;28;20057;-70
2022/11/04 01:28:43;;;;;;;0.68;0.68;;;;;;;;;;5054156;28;20143;-70
2022/11/04 01:31:19;;;;;;;0.73;0.60;;;;;;;;;;5054628;28;20045;-71
2022/11/04 01:33:46;;;;;;;3.40;0.60;;;;;;;;;;5054744;28;20052;-69
2022/11/04 01:36:13;;;;;;;0.80;0.80;;;;;;;;;;5054616;28;20488;-69
2022/11/04 01:38:39;;;;;;;1.60;0.80;;;;;;;;;;5054199;28;20053;-70
2022/11/04 01:41:07;;;;;;;1.48;0.88;;;;;;;;;;5074254;28;20128;-69
2022/11/04 01:43:42;;;;;;;0.93;0.65;;;;;;;;;;5074630;28;20094;-70
2022/11/04 01:46:09;;;;;;;0.60;0.60;;;;;;;;;;5071168;28;20136;-70
2022/11/04 01:48:35;;;;;;;1.00;0.70;;;;;;;;;;5036064;28;20474;-70
2022/11/04 01:51:02;;;;;;;1.00;0.90;;;;;;;;;;5054389;28;20075;-70
2022/11/04 01:53:33;;;;;;;2.10;1.00;;;;;;;;;;5053004;28;20084;-69
2022/11/04 01:56:03;;;;;;;0.90;0.82;;;;;;;;;;5054253;28;20050;-70
2022/11/04 01:58:32;;;;;;;0.93;0.63;;;;;;;;;;5036533;28;20135;-69
2022/11/04 02:00:58;;;;;;;0.60;0.52;;;;;;;;;;5036447;28;20045;-70
2022/11/04 02:03:28;;;;;;;0.80;0.80;;;;;;;;;;5052845;28;20106;-70
2022/11/04 02:05:55;;;;;;;0.68;0.63;;;;;;;;;;5052855;28;20131;-69
2022/11/04 02:08:22;;;;;;;0.80;0.70;;;;;;;;;;5053447;28;20587;-70
2022/11/04 02:10:57;;;;;;;0.70;0.70;;;;;;;;;;5053011;28;20048;-69
2022/11/04 02:13:23;;;;;;;1.92;0.73;;;;;;;;;;5053750;28;20049;-69
2022/11/04 02:16:40;;;;;;;0.60;0.50;;;;;;;;;;5053636;28;20470;-68
2022/11/04 02:19:35;;;;;;;0.80;0.68;;;;;;;;;;5053239;28;20072;-69
2022/11/04 02:22:11;;;;;;;1.35;0.50;;;;;;;;;;5047472;28;20057;-69
2022/11/04 02:24:52;;;;;;;1.67;0.70;;;;;;;;;;5059741;28;20093;-69
2022/11/04 02:27:37;;;;;;;1.13;0.50;;;;;;;;;;5063948;28;20072;-69
2022/11/04 02:30:07;;;;;;;2.97;0.60;;;;;;;;;;5063282;28;20575;-69
2022/11/04 02:32:54;;;;;;;1.65;0.57;;;;;;;;;;5069902;28;20131;-68
2022/11/04 02:35:44;;;;;;;1.80;0.60;;;;;;;;;;5069703;28;20085;-69
2022/11/04 02:38:31;;;;;;;1.13;0.50;;;;;;;;;;5071504;28;20503;-69
2022/11/04 02:41:22;;;;;;;1.05;0.70;;;;;;;;;;5069568;28;20135;-70
2022/11/04 02:43:56;;;;;;;0.80;0.57;;;;;;;;;;5052637;28;20183;-70
2022/11/04 02:46:41;;;;;;;1.30;0.80;;;;;;;;;;5059775;28;20068;-70
2022/11/04 02:49:30;;;;;;;0.88;0.80;;;;;;;;;;5067934;28;20052;-69
2022/11/04 02:52:31;;;;;;;0.90;0.47;;;;;;;;;;5072804;28;20048;-70
2022/11/04 02:55:21;;;;;;;2.33;0.75;;;;;;;;;;5071776;28;20097;-70
2022/11/04 02:57:47;;;;;;;1.80;0.70;;;;;;;;;;5049552;28;20384;-70
2022/11/04 03:00:14;;;;;;;1.45;0.70;;;;;;;;;;5051329;28;20143;-70
2022/11/04 03:02:43;;;;;;;1.30;0.60;;;;;;;;;;5051696;28;20136;-70
2022/11/04 03:05:12;;;;;;;1.13;0.70;;;;;;;;;;5035217;28;20086;-69
2022/11/04 03:07:40;;;;;;;1.80;0.75;;;;;;;;;;5035143;28;20096;-69
2022/11/04 03:10:09;;;;;;;1.00;0.57;;;;;;;;;;5034321;28;20460;-69
2022/11/04 03:12:39;;;;;;;0.40;0.40;;;;;;;;;;5052309;28;20499;-69
2022/11/04 03:15:08;;;;;;;1.45;0.60;;;;;;;;;;5035035;28;20566;-70
2022/11/04 03:17:46;;;;;;;0.63;0.40;;;;;;;;;;5051463;28;20311;-70
2022/11/04 03:20:17;;;;;;;1.05;0.70;;;;;;;;;;5048905;28;20583;-70
2022/11/04 03:25:18;;;;;;;1.55;0.90;;;;;;;;;;5029479;28;20100;-69
2022/11/04 03:27:46;;;;;;;1.98;0.60;;;;;;;;;;5034395;28;20057;-70
2022/11/04 03:30:20;;;;;;;1.67;0.70;;;;;;;;;;5015742;28;20132;-70
2022/11/04 03:32:59;;;;;;;1.20;0.65;;;;;;;;;;5031876;28;20045;-69
2022/11/04 03:35:26;;;;;;;1.38;0.60;;;;;;;;;;5034066;28;20452;-69
2022/11/04 03:37:53;;;;;;;3.33;1.25;;;;;;;;;;5031735;28;20144;-69
2022/11/04 03:40:19;;;;;;;1.33;0.60;;;;;;;;;;5015498;28;20522;-69
2022/11/04 03:43:03;;;;;;;0.95;0.68;;;;;;;;;;5032298;28;20049;-69
2022/11/04 03:45:30;;;;;;;2.15;0.50;;;;;;;;;;5032158;28;20103;-70
2022/11/04 03:47:57;;;;;;;2.15;0.50;;;;;;;;;;5014995;28;20049;-70
2022/11/04 03:50:28;;;;;;;1.98;0.63;;;;;;;;;;5031810;28;20132;-70
2022/11/04 03:52:56;;;;;;;2.38;0.50;;;;;;;;;;5033448;28;20081;-69
2022/11/04 03:55:27;;;;;;;2.35;0.60;;;;;;;;;;5032817;28;20156;-69
2022/11/04 03:58:02;;;;;;;1.17;0.50;;;;;;;;;;5015267;28;20462;-70
2022/11/04 04:00:38;;;;;;;3.03;0.77;;;;;;;;;;5016149;28;20132;-69
2022/11/04 04:03:04;;;;;;;0.90;0.60;;;;;;;;;;5016327;28;20049;-70
2022/11/04 04:05:50;;;;;;;3.03;0.70;;;;;;;;;;5032641;28;20481;-69
2022/11/04 04:08:33;;;;;;;1.63;0.60;;;;;;;;;;5030558;28;20088;-69
2022/11/04 04:11:17;;;;;;;2.08;0.75;;;;;;;;;;5030507;28;20045;-69
2022/11/04 04:13:52;;;;;;;2.90;0.50;;;;;;;;;;5031850;28;20053;-69
2022/11/04 04:16:51;;;;;;;1.40;0.57;;;;;;;;;;5030857;28;20451;-69
2022/11/04 04:19:19;;;;;;;2.22;0.68;;;;;;;;;;5008476;28;20595;-70
2022/11/04 04:22:08;;;;;;;1.42;0.60;;;;;;;;;;5014413;28;20045;-69
2022/11/04 04:27:29;;;;;;;5.28;0.70;;;;;;;;;;5016776;28;20140;-69
2022/11/04 04:30:00;;;;;;;1.98;0.82;;;;;;;;;;4999656;28;20144;-70
2022/11/04 04:32:27;;;;;;;2.30;0.60;;;;;;;;;;5014832;28;20053;-69
2022/11/04 04:37:39;;;;;;;1.40;0.60;;;;;;;;;;5031509;28;20241;-69
2022/11/04 04:45:38;;;;;;;1.42;0.63;;;;;;;;;;5030413;28;20049;-70
2022/11/04 04:48:05;;;;;;;4.13;1.42;;;;;;;;;;4997468;28;20082;-69
2022/11/04 04:50:35;;;;;;;4.30;0.73;;;;;;;;;;5029993;28;20128;-70
2022/11/04 04:53:03;;;;;;;3.92;0.95;;;;;;;;;;5030218;28;20145;-69
2022/11/04 04:55:32;;;;;;;2.42;1.00;;;;;;;;;;5031652;28;20103;-69
2022/11/04 04:58:07;;;;;;;2.30;0.60;;;;;;;;;;5031053;28;20057;-70
2022/11/04 05:00:33;;;;;;;2.28;0.90;;;;;;;;;;5031046;28;20136;-69
2022/11/04 05:03:00;;;;;;;2.03;1.00;;;;;;;;;;5030252;28;20053;-69
2022/11/04 05:05:27;;;;;;;1.05;0.70;;;;;;;;;;5031272;28;20474;-69
2022/11/04 05:07:53;;;;;;;4.43;1.10;;;;;;;;;;5034419;28;20511;-69
2022/11/04 05:10:20;;;;;;;2.75;1.00;;;;;;;;;;5035038;28;20049;-69
2022/11/04 05:15:33;;;;;;;1.10;0.75;;;;;;;;;;5034883;28;20100;-69
2022/11/04 05:18:01;;;;;;;5.00;0.90;;;;;;;;;;5034520;28;20602;-70
2022/11/04 05:20:33;;;;;;;2.72;1.00;;;;;;;;;;5034531;28;20428;-69
2022/11/04 05:22:59;;;;;;;0.67;0.50;;;;;;;;;;5034878;28;20049;-70
2022/11/04 05:25:26;;;;;;;1.23;1.10;;;;;;;;;;5034870;28;20053;-69
2022/11/04 05:27:53;;;;;;;2.08;1.17;;;;;;;;;;5034045;28;20137;-70
2022/11/04 05:30:19;;;;;;;1.75;0.98;;;;;;;;;;5034331;28;20089;-70
2022/11/04 05:32:46;;;;;;;1.48;0.85;;;;;;;;;;5034712;28;20057;-69
2022/11/04 05:35:13;;;;;;;4.20;1.90;;;;;;;;;;5028050;28;20081;-69
2022/11/04 05:37:39;;;;;;;2.95;1.50;;;;;;;;;;5019491;28;20129;-70
2022/11/04 05:40:06;;;;;;;3.72;2.15;;;;;;;;;;5031128;28;20053;-70
2022/11/04 05:42:35;;;;;;;2.60;1.83;;;;;;;;;;5030071;28;20088;-70
2022/11/04 05:45:03;;;;;;;3.25;2.50;;;;;;;;;;5014543;28;20397;-70
2022/11/04 05:47:29;;;;;;;4.22;2.38;;;;;;;;;;5014480;28;20141;-70
2022/11/04 05:49:56;;;;;;;4.38;2.53;;;;;;;;;;5027356;28;20053;-71
2022/11/04 05:52:22;;;;;;;4.30;2.50;;;;;;;;;;5034206;28;20136;-70
2022/11/04 05:54:49;;;;;;;6.22;2.35;;;;;;;;;;5034459;28;20050;-70
2022/11/04 05:57:16;;;;;;;9.38;2.35;;;;;;;;;;5034350;28;20125;-71
2022/11/04 05:59:42;;;;;;;3.00;2.00;;;;;;;;;;5033734;28;20713;-71
2022/11/04 06:02:09;;;;;;;4.28;1.63;;;;;;;;;;5034135;28;20124;-71
2022/11/04 06:04:36;;;;;;;4.82;2.00;;;;;;;;;;5034000;28;20052;-71
2022/11/04 06:07:02;;;;;;;3.17;2.00;;;;;;;;;;5033951;28;20635;-71
2022/11/04 06:09:38;;;;;;;2.90;1.73;;;;;;;;;;5033169;28;20500;-70
2022/11/04 06:12:06;;;;;;;5.78;2.90;;;;;;;;;;5033824;28;20053;-70
2022/11/04 06:14:33;;;;;;;3.47;2.45;;;;;;;;;;5033652;28;20176;-69
2022/11/04 06:17:00;;;;;;;3.75;2.15;;;;;;;;;;5033627;28;20547;-70
2022/11/04 06:19:26;;;;;;;3.97;1.50;;;;;;;;;;5032766;28;20085;-70
2022/11/04 06:21:53;;;;;;;3.05;2.08;;;;;;;;;;5033346;28;20128;-71
2022/11/04 06:24:19;;;;;;;5.68;2.00;;;;;;;;;;5033261;28;20567;-70
2022/11/04 06:26:46;;;;;;;3.35;1.73;;;;;;;;;;5030552;28;20123;-70
2022/11/04 06:29:12;;;;;;;4.20;1.73;;;;;;;;;;5013284;28;20144;-70
2022/11/04 06:31:39;;;;;;;2.78;1.52;;;;;;;;;;5013718;28;20128;-70
2022/11/04 06:34:06;;;;;;;3.22;1.50;;;;;;;;;;5013469;28;20050;-70
2022/11/04 06:36:32;;;;;;;3.63;1.70;;;;;;;;;;5013585;28;20104;-70
2022/11/04 06:38:59;;;;;;;3.38;1.70;;;;;;;;;;5013583;28;20504;-71
2022/11/04 06:41:30;;;;;;;5.70;2.05;;;;;;;;;;5013363;28;20045;-70
2022/11/04 06:43:57;;;;;;;2.83;1.98;;;;;;;;;;5013326;28;20509;-70
2022/11/04 06:46:26;;;;;;;6.15;2.35;;;;;;;;;;5010858;28;20089;-70
2022/11/04 06:48:54;;;;;;;3.67;1.60;;;;;;;;;;5010584;28;20144;-70
2022/11/04 06:51:21;;;;;;;2.90;1.33;;;;;;;;;;5012939;28;20100;-73
2022/11/04 06:53:47;;;;;;;3.25;1.67;;;;;;;;;;5031006;28;20053;-74
2022/11/04 06:56:14;;;;;;;5.20;2.30;;;;;;;;;;5029940;28;20099;-73
2022/11/04 06:58:41;;;;;;;5.75;2.15;;;;;;;;;;5029802;28;20125;-74
2022/11/04 07:01:07;;;;;;;6.22;2.80;;;;;;;;;;5030845;28;20054;-73
2022/11/04 07:03:43;;;;;;;6.35;2.50;;;;;;;;;;5030266;28;20053;-73
2022/11/04 07:06:10;;;;;;;5.03;2.53;;;;;;;;;;5020579;28;20092;-73
2022/11/04 07:08:36;;;;;;;6.50;3.22;;;;;;;;;;5030357;28;20528;-73
2022/11/04 07:11:03;;;;;;;9.57;4.68;;;;;;;;;;5029429;28;20092;-73
2022/11/04 07:13:30;;;;;;;4.47;3.20;;;;;;;;;;5030249;28;20081;-73
2022/11/04 07:15:56;;;;;;;5.43;2.75;;;;;;;;;;5030701;28;20471;-73
2022/11/04 07:18:23;;;;;;;6.30;3.00;;;;;;;;;;5029806;28;20573;-73
2022/11/04 07:20:50;;;;;;;5.93;2.22;;;;;;;;;;5030222;28;20158;-74
2022/11/04 07:23:17;;;;;;;4.13;2.30;;;;;;;;;;5031021;28;20091;-73
2022/11/04 07:25:43;;;;;;;6.40;2.65;;;;;;;;;;5030048;28;20488;-73
2022/11/04 07:28:10;;;;;;;3.47;2.45;;;;;;;;;;5030181;28;20053;-73
2022/11/04 07:30:37;;;;;;;3.88;2.33;;;;;;;;;;5030095;28;20050;-73
2022/11/04 07:33:04;;;;;;;6.15;2.45;;;;;;;;;;5030109;28;20492;-73
2022/11/04 07:35:30;;;;;;;7.60;2.72;;;;;;;;;;5030767;28;20076;-73
2022/11/04 07:37:57;;;;;;;4.70;2.10;;;;;;;;;;5027944;28;20095;-73
2022/11/04 07:40:23;;;;;;;4.70;2.67;;;;;;;;;;5030262;28;20495;-74
2022/11/04 07:42:50;;;;;;;2.35;2.00;;;;;;;;;;5030120;28;20503;-73
2022/11/04 07:45:16;;;;;;;4.78;2.55;;;;;;;;;;5029996;28;20128;-68
2022/11/04 07:47:43;;;;;;;2.42;2.22;;;;;;;;;;5011508;28;20505;-70
2022/11/04 07:50:10;;;;;;;2.78;2.10;;;;;;;;;;5028803;28;20080;-68
2022/11/04 07:52:37;;;;;;;4.28;2.03;;;;;;;;;;5029326;28;20183;-69
2022/11/04 07:55:04;;;;;;;7.28;1.92;;;;;;;;;;5029082;28;20578;-69
2022/11/04 07:57:31;;;;;;;4.05;2.20;;;;;;;;;;5027459;28;20509;-70
2022/11/04 07:59:58;;;;;;;6.47;2.35;;;;;;;;;;5028284;28;20088;-70
2022/11/04 08:02:24;;;;;;;2.67;1.73;;;;;;;;;;5027508;28;20049;-69
2022/11/04 08:04:59;;;;;;;3.65;1.83;;;;;;;;;;5027819;28;20283;-69
2022/11/04 08:07:26;;;;;;;3.70;2.17;;;;;;;;;;5008874;28;20081;-70
2022/11/04 08:09:52;;;;;;;2.50;1.80;;;;;;;;;;5009627;28;20054;-70
2022/11/04 08:12:20;;;;;;;2.83;1.50;;;;;;;;;;5014337;28;20125;-71
2022/11/04 08:14:47;;;;;;;1.95;1.60;;;;;;;;;;5029504;28;20075;-76
2022/11/04 08:17:14;;;;;;;4.15;1.75;;;;;;;;;;5023662;28;20129;-70
2022/11/04 08:19:40;;;;;;;2.47;1.48;;;;;;;;;;5012558;28;20050;-72
2022/11/04 08:22:07;;;;;;;4.00;1.40;;;;;;;;;;5007981;28;20509;-68
2022/11/04 08:24:34;;;;;;;3.85;1.27;;;;;;;;;;5007956;28;20551;-68
2022/11/04 08:27:01;;;;;;;1.92;1.55;;;;;;;;;;5007963;28;20085;-69
2022/11/04 08:29:37;;;;;;;1.95;1.50;;;;;;;;;;5007227;28;20041;-69
2022/11/04 08:32:04;;;;;;;2.60;1.50;;;;;;;;;;5021791;28;20093;-69
2022/11/04 08:34:31;;;;;;;2.10;1.20;;;;;;;;;;5027207;28;20096;-69
2022/11/04 08:36:59;;;;;;;2.08;1.20;;;;;;;;;;5009658;28;20140;-68
2022/11/04 08:39:25;;;;;;;5.60;1.45;;;;;;;;;;5034064;28;20132;-69
2022/11/04 08:41:52;;;;;;;4.63;1.83;;;;;;;;;;5026913;28;20346;-68
2022/11/04 08:44:19;;;;;;;3.72;1.60;;;;;;;;;;5012502;28;20141;-68
2022/11/04 08:46:46;;;;;;;2.08;1.10;;;;;;;;;;5012650;28;20133;-69
2022/11/04 08:49:12;;;;;;;5.53;1.30;;;;;;;;;;5012178;28;20046;-70
2022/11/04 08:51:48;;;;;;;2.22;1.00;;;;;;;;;;5009534;28;20045;-70
2022/11/04 08:54:17;;;;;;;3.05;1.13;;;;;;;;;;5013755;28;20133;-73
2022/11/04 08:56:44;;;;;;;2.88;1.40;;;;;;;;;;5014411;28;20104;-71
2022/11/04 08:59:11;;;;;;;2.00;1.20;;;;;;;;;;5013536;28;20571;-71
2022/11/04 09:01:38;;;;;;;1.10;1.00;;;;;;;;;;5020579;28;20041;-70
2022/11/04 09:04:05;;;;;;;3.70;0.90;;;;;;;;;;5033609;28;20419;-68
2022/11/04 09:06:35;;;;;;;1.92;0.88;;;;;;;;;;5033808;28;20053;-67
2022/11/04 09:09:04;;;;;;;1.67;0.93;;;;;;;;;;5028070;28;20320;-70
2022/11/04 09:11:32;;;;;;;1.90;1.35;;;;;;;;;;5013514;28;20046;-70
2022/11/04 09:14:00;;;;;;;1.70;0.77;;;;;;;;;;5014883;28;20053;-73
2022/11/04 09:16:30;;;;;;;2.55;0.80;;;;;;;;;;5014191;28;20471;-73
2022/11/04 09:18:57;;;;;;;5.30;0.88;;;;;;;;;;5013738;28;20089;-71
2022/11/04 09:21:25;;;;;;;1.80;1.10;;;;;;;;;;5012308;28;20136;-69
2022/11/04 09:23:52;;;;;;;1.65;0.90;;;;;;;;;;5038434;23;20084;-70
2022/11/04 09:26:19;;;;;;;4.97;1.27;;;;;;;;;;5031583;28;20144;-71
2022/11/04 09:28:45;;;;;;;1.80;1.10;;;;;;;;;;5024535;28;20136;-70
2022/11/04 09:31:14;;;;;;;3.13;1.40;;;;;;;;;;5031493;28;20468;-67
2022/11/04 09:33:41;;;;;;;2.63;1.10;;;;;;;;;;5033116;28;20088;-68
2022/11/04 09:36:09;;;;;;;3.78;1.42;;;;;;;;;;5032751;28;20077;-68
2022/11/04 09:38:39;;;;;;;2.50;1.30;;;;;;;;;;5032249;28;20081;-67
2022/11/04 09:41:29;;;;;;;3.08;1.38;;;;;;;;;;5031740;28;20133;-68
2022/11/04 09:44:07;;;;;;;3.17;1.20;;;;;;;;;;5012426;28;20096;-67
2022/11/04 09:46:34;;;;;;;2.60;1.20;;;;;;;;;;5013823;28;20092;-69
2022/11/04 09:49:01;;;;;;;2.47;1.20;;;;;;;;;;4995820;28;20062;-70
2022/11/04 09:51:28;;;;;;;3.00;1.05;;;;;;;;;;5012402;28;20081;-70
2022/11/04 09:54:22;;;;;;;4.25;0.88;;;;;;;;;;5008956;28;20512;-69
2022/11/04 09:56:50;;;;;;;1.60;1.00;;;;;;;;;;5043995;28;20053;-68
2022/11/04 09:59:20;;;;;;;4.15;0.90;;;;;;;;;;5025679;28;20050;-73
2022/11/04 10:01:50;;;;;;;1.77;1.50;;;;;;;;;;4995443;28;20077;-71
2022/11/04 10:04:38;;;;;;;2.83;1.15;;;;;;;;;;5019707;28;20045;-71
2022/11/04 10:07:34;;;;;;;1.85;1.00;;;;;;;;;;5015666;28;20558;-70
2022/11/04 10:10:31;;;;;;;1.83;1.02;;;;;;;;;;5011928;28;20108;-68
2022/11/04 10:13:19;;;;;;;2.20;1.48;;;;;;;;;;5012058;28;20074;-70
2022/11/04 10:16:09;;;;;;;1.98;1.38;;;;;;;;;;5012047;28;20093;-70
2022/11/04 10:19:17;;;;;;;1.73;0.88;;;;;;;;;;4992338;28;20081;-68
2022/11/04 10:21:44;;;;;;;1.60;1.10;;;;;;;;;;5010779;28;20137;-72
2022/11/04 10:24:23;;;;;;;3.72;1.40;;;;;;;;;;5011747;28;20100;-71
2022/11/04 10:27:04;;;;;;;4.80;1.00;;;;;;;;;;5010883;28;20141;-73
2022/11/04 10:29:42;;;;;;;4.72;1.63;;;;;;;;;;4994706;28;20100;-76
2022/11/04 10:32:59;;;;;;;1.42;0.85;;;;;;;;;;5027854;28;20041;-78
2022/11/04 10:35:28;;;;;;;3.83;1.08;;;;;;;;;;5022387;28;20085;-74
2022/11/04 10:37:55;;;;;;;2.30;0.95;;;;;;;;;;5029961;28;20089;-74
2022/11/04 10:40:35;;;;;;;4.50;1.45;;;;;;;;;;5030467;28;20092;-74
2022/11/04 10:43:02;;;;;;;2.78;1.23;;;;;;;;;;5002306;28;20045;-68
2022/11/04 10:45:49;;;;;;;3.30;0.90;;;;;;;;;;5012963;28;20486;-75
2022/11/04 10:48:21;;;;;;;1.52;0.93;;;;;;;;;;5015294;28;20096;-74
2022/11/04 10:50:56;;;;;;;2.67;1.08;;;;;;;;;;5009113;28;20115;-68
2022/11/04 10:53:25;;;;;;;1.77;1.00;;;;;;;;;;5010388;28;20145;-71
2022/11/04 10:56:00;;;;;;;2.22;0.98;;;;;;;;;;4986970;28;20054;-70
2022/11/04 10:58:30;;;;;;;4.82;1.05;;;;;;;;;;5010580;28;20100;-66
2022/11/04 11:00:57;;;;;;;2.25;0.90;;;;;;;;;;5018989;28;20107;-70
2022/11/04 11:03:29;;;;;;;2.17;1.00;;;;;;;;;;5029299;28;20057;-69
2022/11/04 11:06:26;;;;;;;2.10;0.80;;;;;;;;;;5031144;28;20148;-70
2022/11/04 11:08:54;;;;;;;4.88;1.30;;;;;;;;;;5014767;28;20060;-69
2022/11/04 11:11:39;;;;;;;1.95;1.10;;;;;;;;;;5009884;28;20145;-72
2022/11/04 11:14:28;;;;;;;3.45;1.10;;;;;;;;;;5026269;28;20611;-72
2022/11/04 11:16:55;;;;;;;2.35;1.15;;;;;;;;;;5016593;28;20403;-69
2022/11/04 11:19:26;;;;;;;2.42;1.25;;;;;;;;;;5028397;28;20132;-67
2022/11/04 11:21:55;;;;;;;5.38;1.48;;;;;;;;;;5030513;28;20099;-70
2022/11/04 11:24:26;;;;;;;4.32;1.15;;;;;;;;;;5029364;28;20107;-73
2022/11/04 11:26:59;;;;;;;3.50;1.23;;;;;;;;;;5030828;28;20140;-70
2022/11/04 11:29:26;;;;;;;;;;;;;;;;;;5004985;28;20096;-72
2022/11/04 11:31:54;;;;;;;3.22;1.30;;;;;;;;;;5012006;28;19973;-70
2022/11/04 11:34:31;;;;;;;3.10;0.70;;;;;;;;;;5010932;28;20053;-69
2022/11/04 11:36:58;;;;;;;2.97;1.20;;;;;;;;;;4995342;28;20054;-69
2022/11/04 11:39:26;;;;;;;3.92;2.22;;;;;;;;;;5011774;28;20480;-70
2022/11/04 11:41:59;;;;;;;24.42;11.55;;;;;;;;;;5001686;28;20451;-70
2022/11/04 11:44:46;;;;;;;8.85;2.72;;;;;;;;;;5025705;28;20077;-69
2022/11/04 11:47:21;;;;;;;3.28;1.30;;;;;;;;;;4997043;28;20050;-69
2022/11/04 11:50:03;;;;;;;2.67;1.20;;;;;;;;;;5013672;28;20103;-68
2022/11/04 11:52:37;;;;;;;6.35;1.52;;;;;;;;;;5014283;28;20076;-69
2022/11/04 11:55:18;;;;;;;3.55;1.10;;;;;;;;;;5013656;28;20131;-69
2022/11/04 11:58:16;;;;;;;4.18;1.58;;;;;;;;;;5013326;28;20049;-71
2022/11/04 12:01:13;;;;;;;4.75;1.20;;;;;;;;;;5030055;28;20053;-66
2022/11/04 12:03:50;;;;;;;4.93;0.82;;;;;;;;;;5028702;28;20046;-67
2022/11/04 12:06:59;;;;;;;2.90;1.02;;;;;;;;;;5029207;28;20136;-68
2022/11/04 12:09:59;;;;;;;2.00;0.80;;;;;;;;;;5029488;28;20053;-70
2022/11/04 12:12:51;;;;;;;4.10;1.05;;;;;;;;;;5029599;28;20099;-70
2022/11/04 12:15:40;;;;;;;4.95;0.65;;;;;;;;;;5029842;28;20419;-69
2022/11/04 12:18:27;;;;;;;3.17;1.38;;;;;;;;;;5029830;28;20064;-71
2022/11/04 12:21:08;;;;;;;3.15;0.80;;;;;;;;;;5029057;28;20140;-70
2022/11/04 12:23:45;;;;;;;2.45;1.05;;;;;;;;;;5026793;28;20053;-68
2022/11/04 12:26:50;;;;;;;2.55;0.73;;;;;;;;;;5030036;28;20504;-72
2022/11/04 12:29:35;;;;;;;7.80;1.67;;;;;;;;;;5007131;28;20128;-71
2022/11/04 12:32:02;;;;;;;4.55;1.13;;;;;;;;;;5028449;28;20128;-71
2022/11/04 12:34:47;;;;;;;4.18;0.80;;;;;;;;;;5029820;28;20455;-70
2022/11/04 12:37:17;;;;;;;3.28;0.90;;;;;;;;;;5029690;28;20129;-69
2022/11/04 12:40:17;;;;;;;4.55;1.30;;;;;;;;;;5028696;28;20057;-72
2022/11/04 12:42:55;;;;;;;2.58;0.90;;;;;;;;;;5018884;28;20046;-73
2022/11/04 12:45:28;;;;;;;2.20;0.60;;;;;;;;;;5008977;28;20459;-71
2022/11/04 12:48:03;;;;;;;2.65;0.85;;;;;;;;;;5008497;28;20460;-70
2022/11/04 12:50:57;;;;;;;3.45;0.70;;;;;;;;;;4999749;28;20529;-69
2022/11/04 12:53:24;;;;;;;4.20;0.75;;;;;;;;;;5008980;28;20081;-71
2022/11/04 12:56:10;;;;;;;5.47;0.90;;;;;;;;;;5010178;28;20056;-70
2022/11/04 12:59:20;;;;;;;2.78;0.70;;;;;;;;;;5009542;28;20056;-70
2022/11/04 13:01:52;;;;;;;2.80;0.88;;;;;;;;;;4994817;28;20429;-69
2022/11/04 13:04:24;;;;;;;5.05;1.70;;;;;;;;;;5008305;28;20124;-70
2022/11/04 13:07:13;;;;;;;12.30;5.05;;;;;;;;;;5009272;28;20085;-69
2022/11/04 13:09:55;;;;;;;15.48;6.57;;;;;;;;;;4976134;28;20054;-69
2022/11/04 13:12:23;;;;;;;9.10;3.20;;;;;;;;;;4993053;28;20081;-65
2022/11/04 13:15:01;;;;;;;5.80;1.80;;;;;;;;;;5008440;28;20398;-66
2022/11/04 13:17:38;;;;;;;6.18;1.88;;;;;;;;;;4993576;28;20104;-69
2022/11/04 13:20:14;;;;;;;2.28;0.80;;;;;;;;;;4992254;28;20125;-69
2022/11/04 13:22:43;;;;;;;4.57;1.15;;;;;;;;;;5009642;28;20389;-69
2022/11/04 13:25:36;;;;;;;3.00;1.00;;;;;;;;;;5008430;28;20085;-69
2022/11/04 13:28:03;;;;;;;4.43;0.75;;;;;;;;;;5010855;28;20128;-68
2022/11/04 13:30:32;;;;;;;2.08;0.80;;;;;;;;;;5011750;28;20096;-70
2022/11/04 13:33:26;;;;;;;2.33;0.70;;;;;;;;;;5018227;28;20149;-70
2022/11/04 13:36:11;;;;;;;4.60;0.80;;;;;;;;;;5033006;28;20076;-70
2022/11/04 13:38:59;;;;;;;3.25;0.75;;;;;;;;;;5032523;28;20053;-69
2022/11/04 13:41:38;;;;;;;6.80;0.90;;;;;;;;;;5031614;28;20099;-69
2022/11/04 13:44:17;;;;;;;5.65;0.93;;;;;;;;;;5011258;28;20042;-69
2022/11/04 13:46:52;;;;;;;5.85;1.23;;;;;;;;;;4998895;28;20088;-69
2022/11/04 13:49:31;;;;;;;4.07;0.70;;;;;;;;;;5014859;28;20046;-70
2022/11/04 13:52:12;;;;;;;4.60;1.23;;;;;;;;;;5030888;28;20053;-70
2022/11/04 13:54:40;;;;;;;3.75;0.80;;;;;;;;;;5031127;28;20065;-67
2022/11/04 13:57:11;;;;;;;3.17;0.98;;;;;;;;;;5031415;28;20053;-69
2022/11/04 13:59:38;;;;;;;4.18;0.68;;;;;;;;;;5031749;28;20046;-67
2022/11/04 14:02:24;;;;;;;4.90;1.00;;;;;;;;;;5018899;28;20058;-72
2022/11/04 14:04:51;;;;;;;3.20;0.93;;;;;;;;;;5012373;28;20049;-72
2022/11/04 14:07:17;;;;;;;3.60;0.90;;;;;;;;;;5012815;28;20050;-68
2022/11/04 14:09:53;;;;;;;4.18;1.10;;;;;;;;;;5010671;28;20085;-68
2022/11/04 14:12:31;;;;;;;2.20;0.85;;;;;;;;;;5016522;28;20115;-68
2022/11/04 14:15:08;;;;;;;2.67;0.82;;;;;;;;;;5023062;28;20053;-72
2022/11/04 14:17:34;;;;;;;4.80;1.25;;;;;;;;;;5018776;28;20112;-67
2022/11/04 14:20:06;;;;;;;2.58;1.15;;;;;;;;;;5012216;28;20559;-67
2022/11/04 14:22:42;;;;;;;3.83;1.20;;;;;;;;;;5013304;28;20112;-66
2022/11/04 14:25:19;;;;;;;3.10;0.93;;;;;;;;;;5012882;28;20117;-66
2022/11/04 14:27:54;;;;;;;4.88;1.20;;;;;;;;;;5010590;28;20049;-70
2022/11/04 14:30:46;;;;;;;2.38;1.15;;;;;;;;;;5011491;28;20051;-68
2022/11/04 14:33:31;;;;;;;3.30;0.70;;;;;;;;;;5013297;28;20460;-69
2022/11/04 14:36:18;;;;;;;1.73;0.90;;;;;;;;;;5013530;28;20104;-67
2022/11/04 14:39:11;;;;;;;2.35;0.90;;;;;;;;;;5017863;28;20049;-67
2022/11/04 14:42:01;;;;;;;2.00;0.60;;;;;;;;;;5032385;28;20089;-67
2022/11/04 14:44:40;;;;;;;2.28;0.98;;;;;;;;;;5032970;28;20045;-66
2022/11/04 14:47:13;;;;;;;2.78;0.82;;;;;;;;;;5032256;28;20463;-66
2022/11/04 14:49:47;;;;;;;2.50;0.77;;;;;;;;;;5032654;28;20084;-66
2022/11/04 14:52:25;;;;;;;0.98;0.80;;;;;;;;;;5033187;28;20057;-66
2022/11/04 14:55:19;;;;;;;3.67;0.70;;;;;;;;;;5031849;28;20046;-65
2022/11/04 14:57:51;;;;;;;1.27;0.85;;;;;;;;;;5017548;28;20081;-66
2022/11/04 15:00:21;;;;;;;4.07;1.20;;;;;;;;;;5032982;28;20137;-66
2022/11/04 15:02:57;;;;;;;2.45;1.05;;;;;;;;;;5032713;28;20053;-66
2022/11/04 15:05:28;;;;;;;4.95;1.50;;;;;;;;;;5016431;28;20492;-66
2022/11/04 15:07:55;;;;;;;1.42;1.23;;;;;;;;;;5014801;28;20076;-65
2022/11/04 15:10:25;;;;;;;2.55;1.10;;;;;;;;;;5032640;28;20512;-66
2022/11/04 15:12:56;;;;;;;2.75;1.23;;;;;;;;;;5033023;28;20481;-67
2022/11/04 15:15:35;;;;;;;1.80;1.23;;;;;;;;;;5031374;28;20085;-65
2022/11/04 15:18:29;;;;;;;3.67;1.80;;;;;;;;;;5031053;28;20057;-67
2022/11/04 15:20:57;;;;;;;4.05;1.50;;;;;;;;;;5025190;28;20077;-66
2022/11/04 15:26:31;;;;;;;3.47;2.03;;;;;;;;;;5055609;23;20066;-71
2022/11/04 15:28:59;;;;;;;5.20;3.35;;;;;;;;;;5016097;28;20466;-71
2022/11/04 15:31:29;;;;;;;9.50;3.85;;;;;;;;;;5031494;28;20045;-71
2022/11/04 15:34:03;;;;;;;13.38;5.80;;;;;;;;;;5032934;28;20207;-70
2022/11/04 15:36:40;;;;;;;6.53;2.80;;;;;;;;;;5015137;28;20083;-71
2022/11/04 15:39:14;;;;;;;5.43;2.83;;;;;;;;;;5014983;28;20428;-71
2022/11/04 15:44:28;;;;;;;7.18;4.35;;;;;;;;;;5032152;28;20081;-71
2022/11/04 15:47:00;;;;;;;6.38;2.88;;;;;;;;;;5032361;28;20099;-71
2022/11/04 15:49:31;;;;;;;5.15;2.38;;;;;;;;;;5030734;28;20088;-71
2022/11/04 15:52:06;;;;;;;5.38;2.47;;;;;;;;;;5032469;28;20056;-71
2022/11/04 15:54:37;;;;;;;3.33;1.83;;;;;;;;;;5031095;28;20076;-71
2022/11/04 15:57:14;;;;;;;3.35;1.60;;;;;;;;;;5031549;28;20435;-71